This is the latest recevied weather packets stored in our database for station/object W2CJS. If no packets are shown the sender has not sent any weather packets the latest 10 day(s).
| Time | Temp. | Humidity | Pressure | Rain* | Wind** | Luminosity | Snow |
|---|---|---|---|---|---|---|---|
| 1777342206 | 10.56° C | 62% | 1021.2 hPa | 0 mm | - | - | - |
| 1777339227 | 14.44° C | 54% | 1021 hPa | 0 mm | - | - | - |
| 1777332606 | 16.11° C | 47% | 1020.4 hPa | 0 mm | - | - | - |
| 1777330224 | 20° C | 36% | 1020.3 hPa | 0 mm | - | - | - |
| 1777327803 | 21.11° C | 29% | 1020.5 hPa | 0 mm | - | - | - |
| 1777327203 | 21.11° C | 30% | 1020.7 hPa | 0 mm | - | - | - |
| 1777326004 | 21.11° C | 32% | 1020.7 hPa | 0 mm | - | - | - |
| 1777321203 | 21.11° C | 28% | 1021 hPa | 0 mm | - | - | - |
| 1777319425 | 21.11° C | 31% | 1021.3 hPa | 0 mm | - | - | - |
| 1777315203 | 21.11° C | 31% | 1022 hPa | 0 mm | - | - | - |
| 1777313403 | 21.11° C | 31% | 1022.3 hPa | 0 mm | - | - | - |
| 1777311603 | 19.44° C | 39% | 1022.4 hPa | 0 mm | - | - | - |
| 1777309803 | 20° C | 34% | 1022.8 hPa | 0 mm | - | - | - |
| 1777308624 | 18.89° C | 38% | 1022.9 hPa | 0 mm | - | - | - |
| 1777308004 | 19.44° C | 35% | 1023.2 hPa | 0 mm | - | - | - |
| 1777302024 | 17.78° C | 40% | 1023.8 hPa | 0 mm | - | - | - |
| 1777300204 | 16.11° C | 46% | 1023.8 hPa | 0 mm | - | - | - |
| 1777297803 | 12.22° C | 62% | 1024.1 hPa | 0 mm | - | - | - |
| 1777296603 | 10° C | 69% | 1024.1 hPa | 0 mm | - | - | - |
| 1777296003 | 9.44° C | 72% | 1024.2 hPa | 0 mm | - | - | - |
| 1777294803 | 7.78° C | 80% | 1024.1 hPa | 0 mm | - | - | - |
| 1777279203 | -0.56° C | 90% | 1023.1 hPa | 0 mm | - | - | - |
| 1777276203 | 0° C | 89% | 1022.9 hPa | 0 mm | - | - | - |
| 1777272603 | 0.56° C | 87% | 1022.4 hPa | 0 mm | - | - | - |
| 1777270803 | 1.11° C | 86% | 1022.1 hPa | 0 mm | - | - | - |
* Rain latest hour (hover to see other rain measurements)
** Current wind speed in m/s (hover to see current wind gust speed)